Terminal Aerodrome Forecast
Issued by NWS

Home | Current Version | Previous Version | Text Only | Print | Product List | Glossary On
Versions: 1 2 3 4 5 6 7 8 9 10 11 12 13 14
000
FTUS44 KLZK 301700
TAFLLQ
TAF
KLLQ 301721Z 3018/3118 18008KT P6SM SCT080 BKN120
     FM310000 24006KT P6SM VCSH SCT025 OVC050
      TEMPO 3104/3108 5SM -SHRA BR BKN025
     FM310800 VRB05KT 5SM -SHRA BR BKN025 OVC040
      TEMPO 3112/3116 1SM SHRA BR OVC012
     FM311600 13007KT P6SM SCT015 BKN025 PROB30 3116/3118 5SM -SHRA
      BR BKN015=

USA.gov is the U.S. government's official web portal to all federal, state and local government web resources and services.